sensor_id;sensor_type;location;lat;lon;timestamp;P1;durP1;ratioP1;P2;durP2;ratioP2
22449;SDS011;11392;57.390;-2.468;2023-06-10T00:02:21;10.30;;;8.23;;
22449;SDS011;11392;57.390;-2.468;2023-06-10T00:04:48;12.52;;;7.80;;
22449;SDS011;11392;57.390;-2.468;2023-06-10T00:07:16;8.10;;;7.07;;
22449;SDS011;11392;57.390;-2.468;2023-06-10T00:09:43;9.10;;;8.00;;
22449;SDS011;11392;57.390;-2.468;2023-06-10T00:12:11;8.73;;;7.28;;
22449;SDS011;11392;57.390;-2.468;2023-06-10T00:14:39;7.20;;;6.50;;
22449;SDS011;11392;57.390;-2.468;2023-06-10T00:17:07;11.82;;;8.50;;
22449;SDS011;11392;57.390;-2.468;2023-06-10T00:19:38;8.18;;;7.05;;
22449;SDS011;11392;57.390;-2.468;2023-06-10T00:22:08;10.52;;;8.30;;
22449;SDS011;11392;57.390;-2.468;2023-06-10T00:24:37;10.18;;;8.45;;
22449;SDS011;11392;57.390;-2.468;2023-06-10T00:27:04;11.50;;;9.05;;
22449;SDS011;11392;57.390;-2.468;2023-06-10T00:29:33;11.93;;;9.98;;
22449;SDS011;11392;57.390;-2.468;2023-06-10T00:32:01;14.55;;;9.35;;
22449;SDS011;11392;57.390;-2.468;2023-06-10T00:34:29;16.10;;;11.00;;
22449;SDS011;11392;57.390;-2.468;2023-06-10T00:36:56;11.93;;;9.02;;
22449;SDS011;11392;57.390;-2.468;2023-06-10T00:39:23;11.20;;;9.30;;
22449;SDS011;11392;57.390;-2.468;2023-06-10T00:41:50;9.43;;;8.07;;
22449;SDS011;11392;57.390;-2.468;2023-06-10T00:44:17;12.50;;;8.70;;
22449;SDS011;11392;57.390;-2.468;2023-06-10T00:46:45;11.48;;;10.27;;
22449;SDS011;11392;57.390;-2.468;2023-06-10T00:49:12;11.65;;;9.65;;
22449;SDS011;11392;57.390;-2.468;2023-06-10T00:51:39;13.70;;;9.88;;
22449;SDS011;11392;57.390;-2.468;2023-06-10T00:54:06;10.65;;;9.43;;
22449;SDS011;11392;57.390;-2.468;2023-06-10T00:56:34;13.00;;;9.82;;
22449;SDS011;11392;57.390;-2.468;2023-06-10T00:59:02;10.88;;;8.80;;
22449;SDS011;11392;57.390;-2.468;2023-06-10T01:01:29;13.07;;;9.35;;
22449;SDS011;11392;57.390;-2.468;2023-06-10T01:03:56;12.27;;;9.00;;
22449;SDS011;11392;57.390;-2.468;2023-06-10T01:11:49;13.73;;;10.25;;
22449;SDS011;11392;57.390;-2.468;2023-06-10T01:14:24;13.18;;;9.35;;
22449;SDS011;11392;57.390;-2.468;2023-06-10T01:16:52;12.02;;;10.18;;
22449;SDS011;11392;57.390;-2.468;2023-06-10T01:19:19;17.88;;;11.73;;
22449;SDS011;11392;57.390;-2.468;2023-06-10T01:21:50;17.35;;;11.00;;
22449;SDS011;11392;57.390;-2.468;2023-06-10T01:24:18;11.77;;;9.20;;
22449;SDS011;11392;57.390;-2.468;2023-06-10T01:26:46;13.80;;;10.57;;
22449;SDS011;11392;57.390;-2.468;2023-06-10T01:29:21;17.33;;;10.50;;
22449;SDS011;11392;57.390;-2.468;2023-06-10T01:32:03;12.50;;;10.25;;
22449;SDS011;11392;57.390;-2.468;2023-06-10T01:34:39;11.75;;;10.27;;
22449;SDS011;11392;57.390;-2.468;2023-06-10T01:37:09;14.55;;;10.07;;
22449;SDS011;11392;57.390;-2.468;2023-06-10T01:39:39;11.77;;;9.70;;
22449;SDS011;11392;57.390;-2.468;2023-06-10T01:42:08;12.20;;;8.60;;
22449;SDS011;11392;57.390;-2.468;2023-06-10T01:44:38;11.85;;;9.50;;
22449;SDS011;11392;57.390;-2.468;2023-06-10T01:47:06;11.65;;;8.90;;
22449;SDS011;11392;57.390;-2.468;2023-06-10T01:49:33;10.30;;;8.98;;
22449;SDS011;11392;57.390;-2.468;2023-06-10T01:52:00;10.70;;;8.63;;
22449;SDS011;11392;57.390;-2.468;2023-06-10T01:54:27;14.93;;;10.10;;
22449;SDS011;11392;57.390;-2.468;2023-06-10T01:56:54;12.48;;;10.35;;
22449;SDS011;11392;57.390;-2.468;2023-06-10T01:59:21;11.82;;;9.32;;
22449;SDS011;11392;57.390;-2.468;2023-06-10T02:01:48;10.73;;;8.35;;
22449;SDS011;11392;57.390;-2.468;2023-06-10T02:04:15;11.98;;;9.30;;
22449;SDS011;11392;57.390;-2.468;2023-06-10T02:06:43;12.25;;;9.30;;
22449;SDS011;11392;57.390;-2.468;2023-06-10T02:09:10;13.80;;;9.60;;
22449;SDS011;11392;57.390;-2.468;2023-06-10T02:11:37;12.20;;;9.75;;
22449;SDS011;11392;57.390;-2.468;2023-06-10T02:14:04;11.40;;;8.70;;
22449;SDS011;11392;57.390;-2.468;2023-06-10T02:16:31;13.43;;;10.05;;
22449;SDS011;11392;57.390;-2.468;2023-06-10T02:18:59;10.18;;;9.13;;
22449;SDS011;11392;57.390;-2.468;2023-06-10T02:21:26;10.65;;;9.30;;
22449;SDS011;11392;57.390;-2.468;2023-06-10T02:23:53;14.38;;;10.02;;
22449;SDS011;11392;57.390;-2.468;2023-06-10T02:26:21;14.38;;;10.30;;
22449;SDS011;11392;57.390;-2.468;2023-06-10T02:28:49;11.05;;;8.50;;
22449;SDS011;11392;57.390;-2.468;2023-06-10T02:31:16;11.55;;;9.38;;
22449;SDS011;11392;57.390;-2.468;2023-06-10T02:33:44;10.43;;;8.23;;
22449;SDS011;11392;57.390;-2.468;2023-06-10T02:36:11;10.05;;;8.57;;
22449;SDS011;11392;57.390;-2.468;2023-06-10T02:38:42;11.18;;;9.93;;
22449;SDS011;11392;57.390;-2.468;2023-06-10T02:41:09;10.68;;;9.48;;
22449;SDS011;11392;57.390;-2.468;2023-06-10T02:43:35;10.90;;;9.75;;
22449;SDS011;11392;57.390;-2.468;2023-06-10T02:46:03;12.15;;;9.95;;
22449;SDS011;11392;57.390;-2.468;2023-06-10T02:48:30;14.27;;;10.07;;
22449;SDS011;11392;57.390;-2.468;2023-06-10T02:50:57;11.93;;;9.70;;
22449;SDS011;11392;57.390;-2.468;2023-06-10T02:53:24;12.82;;;10.10;;
22449;SDS011;11392;57.390;-2.468;2023-06-10T02:55:51;12.80;;;9.40;;
22449;SDS011;11392;57.390;-2.468;2023-06-10T02:58:18;13.32;;;9.65;;
22449;SDS011;11392;57.390;-2.468;2023-06-10T03:00:47;12.25;;;9.05;;
22449;SDS011;11392;57.390;-2.468;2023-06-10T03:03:15;12.32;;;10.13;;
22449;SDS011;11392;57.390;-2.468;2023-06-10T03:05:42;11.80;;;10.55;;
22449;SDS011;11392;57.390;-2.468;2023-06-10T03:08:09;12.23;;;9.32;;
22449;SDS011;11392;57.390;-2.468;2023-06-10T03:10:36;12.18;;;9.95;;
22449;SDS011;11392;57.390;-2.468;2023-06-10T03:13:03;13.77;;;9.50;;
22449;SDS011;11392;57.390;-2.468;2023-06-10T03:15:31;16.80;;;11.32;;
22449;SDS011;11392;57.390;-2.468;2023-06-10T03:17:59;12.70;;;9.82;;
22449;SDS011;11392;57.390;-2.468;2023-06-10T03:20:27;11.90;;;9.40;;
22449;SDS011;11392;57.390;-2.468;2023-06-10T03:22:55;12.38;;;9.75;;
22449;SDS011;11392;57.390;-2.468;2023-06-10T03:25:22;11.55;;;9.65;;
22449;SDS011;11392;57.390;-2.468;2023-06-10T03:27:49;13.25;;;9.00;;
22449;SDS011;11392;57.390;-2.468;2023-06-10T03:30:16;12.23;;;10.05;;
22449;SDS011;11392;57.390;-2.468;2023-06-10T03:32:43;13.80;;;9.93;;
22449;SDS011;11392;57.390;-2.468;2023-06-10T03:35:10;12.95;;;9.32;;
22449;SDS011;11392;57.390;-2.468;2023-06-10T03:37:38;13.27;;;10.55;;
22449;SDS011;11392;57.390;-2.468;2023-06-10T03:40:05;12.32;;;10.18;;
22449;SDS011;11392;57.390;-2.468;2023-06-10T03:42:34;12.30;;;10.02;;
22449;SDS011;11392;57.390;-2.468;2023-06-10T03:45:02;11.93;;;10.27;;
22449;SDS011;11392;57.390;-2.468;2023-06-10T03:47:36;11.70;;;8.98;;
22449;SDS011;11392;57.390;-2.468;2023-06-10T03:50:04;14.07;;;9.10;;
22449;SDS011;11392;57.390;-2.468;2023-06-10T03:52:31;14.80;;;10.30;;
22449;SDS011;11392;57.390;-2.468;2023-06-10T03:54:58;9.90;;;8.88;;
22449;SDS011;11392;57.390;-2.468;2023-06-10T03:57:25;10.57;;;8.50;;
22449;SDS011;11392;57.390;-2.468;2023-06-10T03:59:53;15.05;;;10.80;;
22449;SDS011;11392;57.390;-2.468;2023-06-10T04:02:21;12.27;;;9.35;;
22449;SDS011;11392;57.390;-2.468;2023-06-10T04:04:48;12.13;;;10.15;;
22449;SDS011;11392;57.390;-2.468;2023-06-10T04:07:17;11.32;;;9.00;;
22449;SDS011;11392;57.390;-2.468;2023-06-10T04:09:46;15.35;;;9.48;;
22449;SDS011;11392;57.390;-2.468;2023-06-10T04:12:14;12.20;;;10.13;;
22449;SDS011;11392;57.390;-2.468;2023-06-10T04:14:41;11.50;;;9.43;;
22449;SDS011;11392;57.390;-2.468;2023-06-10T04:17:08;12.55;;;8.50;;
22449;SDS011;11392;57.390;-2.468;2023-06-10T04:19:35;14.35;;;9.68;;
22449;SDS011;11392;57.390;-2.468;2023-06-10T04:22:02;11.20;;;9.25;;
22449;SDS011;11392;57.390;-2.468;2023-06-10T04:24:31;10.95;;;8.95;;
22449;SDS011;11392;57.390;-2.468;2023-06-10T04:26:58;9.52;;;8.40;;
22449;SDS011;11392;57.390;-2.468;2023-06-10T04:29:25;12.85;;;9.23;;
22449;SDS011;11392;57.390;-2.468;2023-06-10T04:31:52;12.45;;;9.70;;
22449;SDS011;11392;57.390;-2.468;2023-06-10T04:34:19;13.95;;;9.98;;
22449;SDS011;11392;57.390;-2.468;2023-06-10T04:36:46;10.10;;;9.05;;
22449;SDS011;11392;57.390;-2.468;2023-06-10T04:39:14;13.18;;;9.55;;
22449;SDS011;11392;57.390;-2.468;2023-06-10T04:41:43;11.43;;;9.65;;
22449;SDS011;11392;57.390;-2.468;2023-06-10T04:44:10;14.30;;;10.77;;
22449;SDS011;11392;57.390;-2.468;2023-06-10T04:46:37;13.45;;;10.32;;
22449;SDS011;11392;57.390;-2.468;2023-06-10T04:49:04;12.38;;;9.55;;
22449;SDS011;11392;57.390;-2.468;2023-06-10T04:51:31;12.75;;;10.38;;
22449;SDS011;11392;57.390;-2.468;2023-06-10T04:53:58;11.23;;;10.02;;
22449;SDS011;11392;57.390;-2.468;2023-06-10T04:56:30;12.35;;;10.90;;
22449;SDS011;11392;57.390;-2.468;2023-06-10T04:58:57;13.68;;;9.68;;
22449;SDS011;11392;57.390;-2.468;2023-06-10T05:01:24;13.40;;;9.43;;
22449;SDS011;11392;57.390;-2.468;2023-06-10T05:03:52;13.13;;;9.05;;
22449;SDS011;11392;57.390;-2.468;2023-06-10T05:06:19;14.52;;;10.00;;
22449;SDS011;11392;57.390;-2.468;2023-06-10T05:08:46;14.15;;;10.05;;
22449;SDS011;11392;57.390;-2.468;2023-06-10T05:11:13;11.70;;;10.05;;
22449;SDS011;11392;57.390;-2.468;2023-06-10T05:13:41;13.50;;;9.05;;
22449;SDS011;11392;57.390;-2.468;2023-06-10T05:16:09;11.88;;;10.10;;
22449;SDS011;11392;57.390;-2.468;2023-06-10T05:18:36;10.82;;;8.77;;
22449;SDS011;11392;57.390;-2.468;2023-06-10T05:21:03;12.15;;;8.73;;
22449;SDS011;11392;57.390;-2.468;2023-06-10T05:23:30;14.02;;;9.80;;
22449;SDS011;11392;57.390;-2.468;2023-06-10T05:25:57;12.57;;;9.18;;
22449;SDS011;11392;57.390;-2.468;2023-06-10T05:28:25;12.98;;;10.23;;
22449;SDS011;11392;57.390;-2.468;2023-06-10T05:30:52;12.23;;;10.07;;
22449;SDS011;11392;57.390;-2.468;2023-06-10T05:33:19;10.93;;;8.70;;
22449;SDS011;11392;57.390;-2.468;2023-06-10T05:35:46;10.38;;;9.27;;
22449;SDS011;11392;57.390;-2.468;2023-06-10T05:38:13;10.57;;;9.48;;
22449;SDS011;11392;57.390;-2.468;2023-06-10T05:40:40;10.68;;;9.25;;
22449;SDS011;11392;57.390;-2.468;2023-06-10T05:43:07;11.18;;;9.57;;
22449;SDS011;11392;57.390;-2.468;2023-06-10T05:45:35;10.30;;;8.82;;
22449;SDS011;11392;57.390;-2.468;2023-06-10T05:48:03;10.70;;;8.60;;
22449;SDS011;11392;57.390;-2.468;2023-06-10T05:50:31;12.02;;;9.23;;
22449;SDS011;11392;57.390;-2.468;2023-06-10T05:53:04;11.05;;;8.77;;
22449;SDS011;11392;57.390;-2.468;2023-06-10T05:55:33;9.80;;;8.80;;
22449;SDS011;11392;57.390;-2.468;2023-06-10T05:58:00;13.27;;;9.70;;
22449;SDS011;11392;57.390;-2.468;2023-06-10T06:00:28;11.50;;;9.23;;
22449;SDS011;11392;57.390;-2.468;2023-06-10T06:02:55;14.82;;;9.27;;
22449;SDS011;11392;57.390;-2.468;2023-06-10T06:05:23;11.35;;;9.07;;
22449;SDS011;11392;57.390;-2.468;2023-06-10T06:07:51;13.20;;;9.38;;
22449;SDS011;11392;57.390;-2.468;2023-06-10T06:10:18;11.38;;;8.82;;
22449;SDS011;11392;57.390;-2.468;2023-06-10T06:12:45;11.65;;;9.13;;
22449;SDS011;11392;57.390;-2.468;2023-06-10T06:15:12;9.45;;;8.18;;
22449;SDS011;11392;57.390;-2.468;2023-06-10T06:17:40;9.23;;;8.15;;
22449;SDS011;11392;57.390;-2.468;2023-06-10T06:20:07;11.15;;;8.80;;
22449;SDS011;11392;57.390;-2.468;2023-06-10T06:22:34;11.18;;;8.82;;
22449;SDS011;11392;57.390;-2.468;2023-06-10T06:25:01;12.65;;;9.13;;
22449;SDS011;11392;57.390;-2.468;2023-06-10T06:27:29;8.55;;;7.45;;
22449;SDS011;11392;57.390;-2.468;2023-06-10T06:29:56;11.85;;;8.68;;
22449;SDS011;11392;57.390;-2.468;2023-06-10T06:32:24;8.88;;;7.90;;
22449;SDS011;11392;57.390;-2.468;2023-06-10T06:34:53;10.45;;;9.07;;
22449;SDS011;11392;57.390;-2.468;2023-06-10T06:37:21;12.02;;;9.05;;
22449;SDS011;11392;57.390;-2.468;2023-06-10T06:39:50;12.30;;;8.93;;
22449;SDS011;11392;57.390;-2.468;2023-06-10T06:42:17;11.13;;;8.80;;
22449;SDS011;11392;57.390;-2.468;2023-06-10T06:44:45;9.77;;;8.00;;
22449;SDS011;11392;57.390;-2.468;2023-06-10T06:47:13;8.50;;;7.35;;
22449;SDS011;11392;57.390;-2.468;2023-06-10T06:49:40;9.15;;;7.45;;
22449;SDS011;11392;57.390;-2.468;2023-06-10T06:52:07;11.73;;;7.45;;
22449;SDS011;11392;57.390;-2.468;2023-06-10T06:54:34;11.15;;;8.65;;
22449;SDS011;11392;57.390;-2.468;2023-06-10T06:57:02;7.55;;;6.72;;
22449;SDS011;11392;57.390;-2.468;2023-06-10T06:59:29;8.93;;;7.72;;
22449;SDS011;11392;57.390;-2.468;2023-06-10T07:01:56;7.57;;;6.75;;
22449;SDS011;11392;57.390;-2.468;2023-06-10T07:04:23;7.85;;;7.13;;
22449;SDS011;11392;57.390;-2.468;2023-06-10T07:06:50;8.10;;;6.97;;
22449;SDS011;11392;57.390;-2.468;2023-06-10T07:09:17;7.80;;;7.00;;
22449;SDS011;11392;57.390;-2.468;2023-06-10T07:11:45;6.20;;;5.70;;
22449;SDS011;11392;57.390;-2.468;2023-06-10T07:14:12;10.10;;;7.25;;
22449;SDS011;11392;57.390;-2.468;2023-06-10T07:16:39;9.60;;;6.50;;
22449;SDS011;11392;57.390;-2.468;2023-06-10T07:19:06;6.90;;;6.30;;
22449;SDS011;11392;57.390;-2.468;2023-06-10T07:21:33;7.90;;;6.50;;
22449;SDS011;11392;57.390;-2.468;2023-06-10T07:24:00;8.57;;;6.32;;
22449;SDS011;11392;57.390;-2.468;2023-06-10T07:26:27;7.47;;;6.60;;
22449;SDS011;11392;57.390;-2.468;2023-06-10T07:28:54;8.93;;;5.72;;
22449;SDS011;11392;57.390;-2.468;2023-06-10T07:31:21;7.38;;;6.38;;
22449;SDS011;11392;57.390;-2.468;2023-06-10T07:33:49;6.97;;;6.28;;
22449;SDS011;11392;57.390;-2.468;2023-06-10T07:36:16;6.57;;;5.95;;
22449;SDS011;11392;57.390;-2.468;2023-06-10T07:38:43;8.20;;;6.47;;
22449;SDS011;11392;57.390;-2.468;2023-06-10T07:41:10;7.18;;;6.57;;
22449;SDS011;11392;57.390;-2.468;2023-06-10T07:43:37;7.80;;;6.07;;
22449;SDS011;11392;57.390;-2.468;2023-06-10T07:46:04;10.75;;;6.30;;
22449;SDS011;11392;57.390;-2.468;2023-06-10T07:48:31;8.73;;;5.97;;
22449;SDS011;11392;57.390;-2.468;2023-06-10T07:50:59;6.10;;;5.50;;
22449;SDS011;11392;57.390;-2.468;2023-06-10T07:53:26;8.15;;;6.05;;
22449;SDS011;11392;57.390;-2.468;2023-06-10T07:55:53;7.55;;;5.85;;
22449;SDS011;11392;57.390;-2.468;2023-06-10T07:58:20;6.28;;;5.53;;
22449;SDS011;11392;57.390;-2.468;2023-06-10T08:00:48;6.97;;;5.18;;
22449;SDS011;11392;57.390;-2.468;2023-06-10T08:03:15;5.43;;;4.72;;
22449;SDS011;11392;57.390;-2.468;2023-06-10T08:05:42;5.03;;;4.57;;
22449;SDS011;11392;57.390;-2.468;2023-06-10T08:08:10;5.75;;;4.55;;
22449;SDS011;11392;57.390;-2.468;2023-06-10T08:10:37;4.82;;;4.30;;
22449;SDS011;11392;57.390;-2.468;2023-06-10T08:13:04;5.30;;;4.57;;
22449;SDS011;11392;57.390;-2.468;2023-06-10T08:15:31;4.70;;;4.20;;
22449;SDS011;11392;57.390;-2.468;2023-06-10T08:17:58;6.93;;;5.10;;
22449;SDS011;11392;57.390;-2.468;2023-06-10T08:20:25;5.07;;;4.30;;
22449;SDS011;11392;57.390;-2.468;2023-06-10T08:22:52;6.57;;;4.75;;
22449;SDS011;11392;57.390;-2.468;2023-06-10T08:25:19;5.90;;;4.20;;
22449;SDS011;11392;57.390;-2.468;2023-06-10T08:27:48;7.25;;;4.47;;
22449;SDS011;11392;57.390;-2.468;2023-06-10T08:30:17;4.40;;;4.00;;
22449;SDS011;11392;57.390;-2.468;2023-06-10T08:32:44;5.15;;;4.18;;
22449;SDS011;11392;57.390;-2.468;2023-06-10T08:35:11;5.10;;;4.68;;
22449;SDS011;11392;57.390;-2.468;2023-06-10T08:37:39;5.95;;;4.22;;
22449;SDS011;11392;57.390;-2.468;2023-06-10T08:40:06;4.57;;;4.18;;
22449;SDS011;11392;57.390;-2.468;2023-06-10T08:42:39;5.13;;;4.38;;
22449;SDS011;11392;57.390;-2.468;2023-06-10T08:45:31;7.72;;;4.00;;
22449;SDS011;11392;57.390;-2.468;2023-06-10T08:48:05;4.32;;;3.90;;
22449;SDS011;11392;57.390;-2.468;2023-06-10T08:50:36;7.05;;;4.38;;
22449;SDS011;11392;57.390;-2.468;2023-06-10T08:53:07;4.43;;;3.85;;
22449;SDS011;11392;57.390;-2.468;2023-06-10T08:55:38;4.40;;;4.00;;
22449;SDS011;11392;57.390;-2.468;2023-06-10T08:58:08;4.53;;;4.13;;
22449;SDS011;11392;57.390;-2.468;2023-06-10T09:00:36;6.07;;;4.97;;
22449;SDS011;11392;57.390;-2.468;2023-06-10T09:03:03;4.80;;;4.07;;
22449;SDS011;11392;57.390;-2.468;2023-06-10T09:05:34;5.32;;;4.15;;
22449;SDS011;11392;57.390;-2.468;2023-06-10T09:08:03;4.15;;;3.65;;
22449;SDS011;11392;57.390;-2.468;2023-06-10T09:10:32;4.80;;;3.70;;
22449;SDS011;11392;57.390;-2.468;2023-06-10T09:12:59;5.35;;;3.88;;
22449;SDS011;11392;57.390;-2.468;2023-06-10T09:15:26;5.22;;;4.00;;
22449;SDS011;11392;57.390;-2.468;2023-06-10T09:17:53;5.05;;;3.90;;
22449;SDS011;11392;57.390;-2.468;2023-06-10T09:20:21;5.88;;;4.20;;
22449;SDS011;11392;57.390;-2.468;2023-06-10T09:22:49;6.28;;;3.80;;
22449;SDS011;11392;57.390;-2.468;2023-06-10T09:25:16;5.82;;;3.53;;
22449;SDS011;11392;57.390;-2.468;2023-06-10T09:27:45;5.75;;;3.50;;
22449;SDS011;11392;57.390;-2.468;2023-06-10T09:30:27;6.18;;;3.85;;
22449;SDS011;11392;57.390;-2.468;2023-06-10T09:32:56;5.78;;;3.53;;
22449;SDS011;11392;57.390;-2.468;2023-06-10T09:35:24;5.25;;;4.28;;
22449;SDS011;11392;57.390;-2.468;2023-06-10T09:37:53;5.03;;;3.90;;
22449;SDS011;11392;57.390;-2.468;2023-06-10T09:40:24;6.15;;;3.30;;
22449;SDS011;11392;57.390;-2.468;2023-06-10T09:43:09;3.42;;;2.60;;
22449;SDS011;11392;57.390;-2.468;2023-06-10T09:45:39;6.38;;;3.88;;
22449;SDS011;11392;57.390;-2.468;2023-06-10T09:48:06;4.22;;;3.30;;
22449;SDS011;11392;57.390;-2.468;2023-06-10T09:50:33;3.55;;;2.83;;
22449;SDS011;11392;57.390;-2.468;2023-06-10T09:53:01;5.68;;;3.40;;
22449;SDS011;11392;57.390;-2.468;2023-06-10T09:55:30;4.32;;;3.20;;
22449;SDS011;11392;57.390;-2.468;2023-06-10T09:58:00;4.50;;;3.05;;
22449;SDS011;11392;57.390;-2.468;2023-06-10T10:00:27;5.22;;;3.30;;
22449;SDS011;11392;57.390;-2.468;2023-06-10T10:02:54;3.47;;;2.97;;
22449;SDS011;11392;57.390;-2.468;2023-06-10T10:05:22;4.15;;;2.65;;
22449;SDS011;11392;57.390;-2.468;2023-06-10T10:07:50;5.10;;;3.20;;
22449;SDS011;11392;57.390;-2.468;2023-06-10T10:10:18;5.03;;;2.90;;
22449;SDS011;11392;57.390;-2.468;2023-06-10T10:12:47;6.18;;;3.50;;
22449;SDS011;11392;57.390;-2.468;2023-06-10T10:15:17;5.25;;;3.53;;
22449;SDS011;11392;57.390;-2.468;2023-06-10T10:17:55;4.13;;;2.88;;
22449;SDS011;11392;57.390;-2.468;2023-06-10T10:20:29;8.82;;;3.17;;
22449;SDS011;11392;57.390;-2.468;2023-06-10T10:23:02;4.88;;;2.80;;
22449;SDS011;11392;57.390;-2.468;2023-06-10T10:25:32;4.95;;;3.33;;
22449;SDS011;11392;57.390;-2.468;2023-06-10T10:28:12;5.43;;;2.97;;
22449;SDS011;11392;57.390;-2.468;2023-06-10T10:30:42;6.93;;;3.10;;
22449;SDS011;11392;57.390;-2.468;2023-06-10T10:33:18;7.45;;;3.20;;
22449;SDS011;11392;57.390;-2.468;2023-06-10T10:35:49;5.53;;;2.78;;
22449;SDS011;11392;57.390;-2.468;2023-06-10T10:38:17;4.15;;;2.55;;
22449;SDS011;11392;57.390;-2.468;2023-06-10T10:40:44;4.90;;;2.80;;
22449;SDS011;11392;57.390;-2.468;2023-06-10T10:43:12;7.25;;;3.53;;
22449;SDS011;11392;57.390;-2.468;2023-06-10T10:45:40;4.57;;;3.00;;
22449;SDS011;11392;57.390;-2.468;2023-06-10T10:48:08;5.03;;;3.38;;
22449;SDS011;11392;57.390;-2.468;2023-06-10T10:50:39;6.25;;;2.88;;
22449;SDS011;11392;57.390;-2.468;2023-06-10T10:53:07;5.22;;;3.08;;
22449;SDS011;11392;57.390;-2.468;2023-06-10T10:55:34;7.15;;;2.92;;
22449;SDS011;11392;57.390;-2.468;2023-06-10T10:58:07;5.30;;;3.10;;
22449;SDS011;11392;57.390;-2.468;2023-06-10T11:00:36;4.65;;;2.90;;
22449;SDS011;11392;57.390;-2.468;2023-06-10T11:03:05;5.70;;;3.25;;
22449;SDS011;11392;57.390;-2.468;2023-06-10T11:05:38;3.92;;;2.88;;
22449;SDS011;11392;57.390;-2.468;2023-06-10T11:08:11;4.75;;;3.05;;
22449;SDS011;11392;57.390;-2.468;2023-06-10T11:10:39;7.90;;;3.17;;
22449;SDS011;11392;57.390;-2.468;2023-06-10T11:13:08;5.22;;;2.88;;
22449;SDS011;11392;57.390;-2.468;2023-06-10T11:15:51;4.50;;;2.80;;
22449;SDS011;11392;57.390;-2.468;2023-06-10T11:20:53;9.95;;;3.60;;
22449;SDS011;11392;57.390;-2.468;2023-06-10T11:26:11;5.38;;;3.13;;
22449;SDS011;11392;57.390;-2.468;2023-06-10T11:31:21;3.53;;;2.78;;
22449;SDS011;11392;57.390;-2.468;2023-06-10T11:33:56;4.10;;;2.92;;
22449;SDS011;11392;57.390;-2.468;2023-06-10T11:36:24;4.18;;;2.72;;
22449;SDS011;11392;57.390;-2.468;2023-06-10T11:38:59;3.45;;;2.60;;
22449;SDS011;11392;57.390;-2.468;2023-06-10T11:41:28;3.63;;;2.60;;
22449;SDS011;11392;57.390;-2.468;2023-06-10T11:44:18;2.88;;;2.60;;
22449;SDS011;11392;57.390;-2.468;2023-06-10T11:46:47;5.28;;;3.00;;
22449;SDS011;11392;57.390;-2.468;2023-06-10T11:49:15;4.90;;;3.00;;
22449;SDS011;11392;57.390;-2.468;2023-06-10T11:51:42;5.03;;;2.70;;
22449;SDS011;11392;57.390;-2.468;2023-06-10T11:54:16;4.38;;;2.63;;
22449;SDS011;11392;57.390;-2.468;2023-06-10T11:56:45;4.95;;;2.65;;
22449;SDS011;11392;57.390;-2.468;2023-06-10T11:59:12;4.60;;;2.88;;
22449;SDS011;11392;57.390;-2.468;2023-06-10T12:01:43;5.95;;;2.90;;
22449;SDS011;11392;57.390;-2.468;2023-06-10T12:04:13;3.85;;;2.72;;
22449;SDS011;11392;57.390;-2.468;2023-06-10T12:06:46;5.13;;;2.88;;
22449;SDS011;11392;57.390;-2.468;2023-06-10T12:09:18;3.38;;;2.70;;
22449;SDS011;11392;57.390;-2.468;2023-06-10T12:11:54;3.75;;;2.72;;
22449;SDS011;11392;57.390;-2.468;2023-06-10T12:17:20;4.28;;;2.42;;
22449;SDS011;11392;57.390;-2.468;2023-06-10T12:19:50;2.78;;;2.28;;
22449;SDS011;11392;57.390;-2.468;2023-06-10T12:22:17;8.48;;;2.67;;
22449;SDS011;11392;57.390;-2.468;2023-06-10T12:24:56;3.50;;;2.33;;
22449;SDS011;11392;57.390;-2.468;2023-06-10T12:27:25;4.97;;;2.50;;
22449;SDS011;11392;57.390;-2.468;2023-06-10T12:29:56;3.95;;;2.20;;
22449;SDS011;11392;57.390;-2.468;2023-06-10T12:32:39;5.93;;;2.50;;
22449;SDS011;11392;57.390;-2.468;2023-06-10T12:35:07;3.30;;;2.58;;
22449;SDS011;11392;57.390;-2.468;2023-06-10T12:37:37;5.35;;;2.42;;
22449;SDS011;11392;57.390;-2.468;2023-06-10T12:40:08;3.33;;;2.20;;
22449;SDS011;11392;57.390;-2.468;2023-06-10T12:42:36;6.88;;;3.20;;
22449;SDS011;11392;57.390;-2.468;2023-06-10T12:45:04;3.40;;;2.50;;
22449;SDS011;11392;57.390;-2.468;2023-06-10T12:47:35;4.03;;;2.90;;
22449;SDS011;11392;57.390;-2.468;2023-06-10T12:50:07;4.50;;;2.40;;
22449;SDS011;11392;57.390;-2.468;2023-06-10T12:52:34;4.00;;;2.58;;
22449;SDS011;11392;57.390;-2.468;2023-06-10T12:55:01;3.58;;;2.65;;
22449;SDS011;11392;57.390;-2.468;2023-06-10T12:57:30;4.72;;;2.90;;
22449;SDS011;11392;57.390;-2.468;2023-06-10T12:59:57;4.40;;;2.95;;
22449;SDS011;11392;57.390;-2.468;2023-06-10T13:02:30;6.82;;;2.83;;
22449;SDS011;11392;57.390;-2.468;2023-06-10T13:04:58;3.75;;;2.97;;
22449;SDS011;11392;57.390;-2.468;2023-06-10T13:07:25;5.57;;;2.95;;
22449;SDS011;11392;57.390;-2.468;2023-06-10T13:09:52;4.22;;;2.50;;
22449;SDS011;11392;57.390;-2.468;2023-06-10T13:12:20;4.05;;;2.67;;
22449;SDS011;11392;57.390;-2.468;2023-06-10T13:15:07;4.13;;;3.15;;
22449;SDS011;11392;57.390;-2.468;2023-06-10T13:17:35;3.90;;;2.72;;
22449;SDS011;11392;57.390;-2.468;2023-06-10T13:20:03;4.13;;;3.20;;
22449;SDS011;11392;57.390;-2.468;2023-06-10T13:22:32;4.13;;;3.10;;
22449;SDS011;11392;57.390;-2.468;2023-06-10T13:25:01;4.78;;;3.17;;
22449;SDS011;11392;57.390;-2.468;2023-06-10T13:27:30;3.42;;;2.90;;
22449;SDS011;11392;57.390;-2.468;2023-06-10T13:29:57;5.13;;;3.25;;
22449;SDS011;11392;57.390;-2.468;2023-06-10T13:32:24;4.95;;;3.45;;
22449;SDS011;11392;57.390;-2.468;2023-06-10T13:34:52;4.28;;;3.42;;
22449;SDS011;11392;57.390;-2.468;2023-06-10T13:37:23;4.97;;;3.28;;
22449;SDS011;11392;57.390;-2.468;2023-06-10T13:39:50;4.97;;;3.20;;
22449;SDS011;11392;57.390;-2.468;2023-06-10T13:42:18;5.43;;;2.95;;
22449;SDS011;11392;57.390;-2.468;2023-06-10T13:44:49;7.70;;;3.58;;
22449;SDS011;11392;57.390;-2.468;2023-06-10T13:47:16;4.18;;;3.42;;
22449;SDS011;11392;57.390;-2.468;2023-06-10T13:49:43;5.43;;;3.40;;
22449;SDS011;11392;57.390;-2.468;2023-06-10T13:52:11;4.97;;;3.35;;
22449;SDS011;11392;57.390;-2.468;2023-06-10T13:54:38;5.07;;;3.00;;
22449;SDS011;11392;57.390;-2.468;2023-06-10T13:57:05;6.68;;;3.17;;
22449;SDS011;11392;57.390;-2.468;2023-06-10T13:59:32;7.78;;;3.17;;
22449;SDS011;11392;57.390;-2.468;2023-06-10T14:02:00;6.22;;;3.22;;
22449;SDS011;11392;57.390;-2.468;2023-06-10T14:04:27;7.85;;;3.40;;
22449;SDS011;11392;57.390;-2.468;2023-06-10T14:06:55;6.10;;;3.55;;
22449;SDS011;11392;57.390;-2.468;2023-06-10T14:09:22;6.57;;;3.33;;
22449;SDS011;11392;57.390;-2.468;2023-06-10T14:11:49;6.30;;;3.10;;
22449;SDS011;11392;57.390;-2.468;2023-06-10T14:14:16;7.25;;;3.30;;
22449;SDS011;11392;57.390;-2.468;2023-06-10T14:16:43;5.95;;;3.40;;
22449;SDS011;11392;57.390;-2.468;2023-06-10T14:19:10;4.93;;;3.40;;
22449;SDS011;11392;57.390;-2.468;2023-06-10T14:21:37;7.78;;;3.55;;
22449;SDS011;11392;57.390;-2.468;2023-06-10T14:24:04;6.43;;;3.50;;
22449;SDS011;11392;57.390;-2.468;2023-06-10T14:26:32;6.60;;;3.63;;
22449;SDS011;11392;57.390;-2.468;2023-06-10T14:28:59;7.00;;;3.85;;
22449;SDS011;11392;57.390;-2.468;2023-06-10T14:31:26;7.15;;;3.08;;
22449;SDS011;11392;57.390;-2.468;2023-06-10T14:33:53;7.25;;;3.80;;
22449;SDS011;11392;57.390;-2.468;2023-06-10T14:36:20;6.55;;;3.60;;
22449;SDS011;11392;57.390;-2.468;2023-06-10T14:38:47;7.15;;;3.17;;
22449;SDS011;11392;57.390;-2.468;2023-06-10T14:41:15;8.90;;;3.53;;
22449;SDS011;11392;57.390;-2.468;2023-06-10T14:43:42;6.75;;;3.72;;
22449;SDS011;11392;57.390;-2.468;2023-06-10T14:46:09;5.05;;;3.13;;
22449;SDS011;11392;57.390;-2.468;2023-06-10T14:48:36;10.30;;;3.90;;
22449;SDS011;11392;57.390;-2.468;2023-06-10T14:51:03;9.77;;;4.53;;
22449;SDS011;11392;57.390;-2.468;2023-06-10T14:53:30;6.93;;;4.22;;